sensor_id;sensor_type;location;lat;lon;timestamp;P1;P2;P0
35654;PMS1003;21773;50.010;19.972;2023-04-24T00:02:00;12.00;12.00;11.40
35654;PMS1003;21773;50.010;19.972;2023-04-24T00:05:03;14.00;14.00;12.80
35654;PMS1003;21773;50.010;19.972;2023-04-24T00:08:08;12.00;11.00;10.00
35654;PMS1003;21773;50.010;19.972;2023-04-24T00:11:11;13.25;13.00;12.00
35654;PMS1003;21773;50.010;19.972;2023-04-24T00:14:16;14.00;12.40;11.20
35654;PMS1003;21773;50.010;19.972;2023-04-24T00:17:19;12.00;12.00;10.50
35654;PMS1003;21773;50.010;19.972;2023-04-24T00:20:23;14.40;13.40;12.80
35654;PMS1003;21773;50.010;19.972;2023-04-24T00:23:27;15.00;14.40;12.80
35654;PMS1003;21773;50.010;19.972;2023-04-24T00:26:30;12.60;12.00;11.00
35654;PMS1003;21773;50.010;19.972;2023-04-24T00:29:35;15.00;15.00;13.00
35654;PMS1003;21773;50.010;19.972;2023-04-24T00:32:38;10.80;10.80;9.80
35654;PMS1003;21773;50.010;19.972;2023-04-24T00:35:42;15.00;14.60;13.60
35654;PMS1003;21773;50.010;19.972;2023-04-24T00:38:45;13.00;13.00;12.00
35654;PMS1003;21773;50.010;19.972;2023-04-24T00:41:48;14.00;13.00;11.00
35654;PMS1003;21773;50.010;19.972;2023-04-24T00:44:55;11.00;11.00;10.50
35654;PMS1003;21773;50.010;19.972;2023-04-24T00:47:59;14.40;13.60;12.40
35654;PMS1003;21773;50.010;19.972;2023-04-24T00:51:03;13.20;12.80;12.00
35654;PMS1003;21773;50.010;19.972;2023-04-24T00:54:07;12.25;12.00;10.00
35654;PMS1003;21773;50.010;19.972;2023-04-24T00:57:11;14.00;12.00;11.25
35654;PMS1003;21773;50.010;19.972;2023-04-24T01:00:18;11.40;11.00;11.00
35654;PMS1003;21773;50.010;19.972;2023-04-24T01:03:22;14.40;14.40;12.40
35654;PMS1003;21773;50.010;19.972;2023-04-24T01:06:29;13.00;12.75;11.00
35654;PMS1003;21773;50.010;19.972;2023-04-24T01:09:33;12.00;11.40;11.00
35654;PMS1003;21773;50.010;19.972;2023-04-24T01:12:38;11.00;10.50;10.00
35654;PMS1003;21773;50.010;19.972;2023-04-24T01:15:43;13.00;13.00;12.00
35654;PMS1003;21773;50.010;19.972;2023-04-24T01:18:46;11.80;10.20;9.00
35654;PMS1003;21773;50.010;19.972;2023-04-24T01:21:50;13.60;12.60;11.60
35654;PMS1003;21773;50.010;19.972;2023-04-24T01:24:58;12.00;12.00;11.00
35654;PMS1003;21773;50.010;19.972;2023-04-24T01:28:04;14.00;13.00;12.50
35654;PMS1003;21773;50.010;19.972;2023-04-24T01:31:07;13.40;13.40;13.00
35654;PMS1003;21773;50.010;19.972;2023-04-24T01:34:11;14.50;14.00;13.00
35654;PMS1003;21773;50.010;19.972;2023-04-24T01:37:15;16.00;15.00;14.00
35654;PMS1003;21773;50.010;19.972;2023-04-24T01:40:19;13.60;13.60;12.60
35654;PMS1003;21773;50.010;19.972;2023-04-24T01:43:23;12.20;12.20;11.20
35654;PMS1003;21773;50.010;19.972;2023-04-24T01:46:27;13.40;13.00;12.00
35654;PMS1003;21773;50.010;19.972;2023-04-24T01:49:31;13.00;12.00;11.25
35654;PMS1003;21773;50.010;19.972;2023-04-24T01:52:35;13.00;13.00;12.00
35654;PMS1003;21773;50.010;19.972;2023-04-24T01:55:40;13.00;12.00;11.00
35654;PMS1003;21773;50.010;19.972;2023-04-24T01:58:44;12.00;12.00;11.00
35654;PMS1003;21773;50.010;19.972;2023-04-24T02:01:47;14.00;14.00;13.00
35654;PMS1003;21773;50.010;19.972;2023-04-24T02:04:53;14.50;14.00;13.00
35654;PMS1003;21773;50.010;19.972;2023-04-24T02:07:56;14.00;13.00;12.00
35654;PMS1003;21773;50.010;19.972;2023-04-24T02:11:01;14.00;13.00;11.50
35654;PMS1003;21773;50.010;19.972;2023-04-24T02:14:05;14.20;13.80;12.80
35654;PMS1003;21773;50.010;19.972;2023-04-24T02:17:08;13.00;13.00;12.00
35654;PMS1003;21773;50.010;19.972;2023-04-24T02:20:14;13.00;12.00;11.60
35654;PMS1003;21773;50.010;19.972;2023-04-24T02:23:19;14.25;13.25;12.25
35654;PMS1003;21773;50.010;19.972;2023-04-24T02:26:24;12.80;12.20;11.80
35654;PMS1003;21773;50.010;19.972;2023-04-24T02:29:27;11.00;10.75;9.75
35654;PMS1003;21773;50.010;19.972;2023-04-24T02:32:31;13.60;13.00;12.00
35654;PMS1003;21773;50.010;19.972;2023-04-24T02:35:35;14.00;13.40;11.40
35654;PMS1003;21773;50.010;19.972;2023-04-24T02:38:39;14.00;14.00;12.00
35654;PMS1003;21773;50.010;19.972;2023-04-24T02:41:44;13.00;11.20;10.20
35654;PMS1003;21773;50.010;19.972;2023-04-24T02:44:47;10.60;10.00;9.00
35654;PMS1003;21773;50.010;19.972;2023-04-24T02:47:52;13.00;12.50;11.00
35654;PMS1003;21773;50.010;19.972;2023-04-24T02:50:55;13.40;13.00;12.00
35654;PMS1003;21773;50.010;19.972;2023-04-24T02:53:59;15.00;13.20;13.00
35654;PMS1003;21773;50.010;19.972;2023-04-24T02:57:04;13.20;12.20;12.00
35654;PMS1003;21773;50.010;19.972;2023-04-24T03:00:08;12.00;11.20;11.00
35654;PMS1003;21773;50.010;19.972;2023-04-24T03:03:13;14.00;13.00;12.50
35654;PMS1003;21773;50.010;19.972;2023-04-24T03:06:17;13.00;12.60;12.00
35654;PMS1003;21773;50.010;19.972;2023-04-24T03:09:20;14.00;14.00;11.60
35654;PMS1003;21773;50.010;19.972;2023-04-24T03:12:25;11.50;11.00;11.00
35654;PMS1003;21773;50.010;19.972;2023-04-24T03:15:29;12.40;11.40;10.40
35654;PMS1003;21773;50.010;19.972;2023-04-24T03:18:32;13.00;12.00;10.60
35654;PMS1003;21773;50.010;19.972;2023-04-24T03:21:37;14.50;14.00;13.00
35654;PMS1003;21773;50.010;19.972;2023-04-24T03:24:42;14.00;12.40;11.40
35654;PMS1003;21773;50.010;19.972;2023-04-24T03:27:50;13.00;12.00;10.40
35654;PMS1003;21773;50.010;19.972;2023-04-24T03:31:08;12.00;12.00;11.00
35654;PMS1003;21773;50.010;19.972;2023-04-24T03:34:12;14.40;12.40;11.00
35654;PMS1003;21773;50.010;19.972;2023-04-24T03:37:15;11.60;10.60;9.60
35654;PMS1003;21773;50.010;19.972;2023-04-24T03:40:34;14.40;14.00;12.80
35654;PMS1003;21773;50.010;19.972;2023-04-24T03:43:47;14.60;14.00;13.00
35654;PMS1003;21773;50.010;19.972;2023-04-24T03:46:50;14.00;13.00;12.00
35654;PMS1003;21773;50.010;19.972;2023-04-24T03:49:55;16.00;15.00;12.60
35654;PMS1003;21773;50.010;19.972;2023-04-24T03:52:59;20.20;18.80;17.00
35654;PMS1003;21773;50.010;19.972;2023-04-24T03:56:13;20.00;19.00;17.33
35654;PMS1003;21773;50.010;19.972;2023-04-24T03:59:18;16.00;15.00;13.60
35654;PMS1003;21773;50.010;19.972;2023-04-24T04:02:31;17.50;15.50;14.50
35654;PMS1003;21773;50.010;19.972;2023-04-24T04:05:35;20.00;16.00;14.00
35654;PMS1003;21773;50.010;19.972;2023-04-24T04:08:39;13.80;12.00;10.80
35654;PMS1003;21773;50.010;19.972;2023-04-24T04:11:42;16.50;15.75;13.75
35654;PMS1003;21773;50.010;19.972;2023-04-24T04:14:47;16.50;14.50;13.50
35654;PMS1003;21773;50.010;19.972;2023-04-24T04:17:51;14.00;13.00;12.00
35654;PMS1003;21773;50.010;19.972;2023-04-24T04:20:54;17.00;15.60;14.00
35654;PMS1003;21773;50.010;19.972;2023-04-24T04:23:58;15.75;14.25;12.75
35654;PMS1003;21773;50.010;19.972;2023-04-24T04:27:07;15.00;14.00;12.00
35654;PMS1003;21773;50.010;19.972;2023-04-24T04:30:34;13.00;13.00;12.60
35654;PMS1003;21773;50.010;19.972;2023-04-24T04:33:39;15.60;14.60;13.60
35654;PMS1003;21773;50.010;19.972;2023-04-24T04:36:44;13.00;13.00;12.00
35654;PMS1003;21773;50.010;19.972;2023-04-24T04:39:59;15.00;15.00;13.50
35654;PMS1003;21773;50.010;19.972;2023-04-24T04:43:08;13.00;13.00;11.40
35654;PMS1003;21773;50.010;19.972;2023-04-24T04:46:19;14.80;14.80;13.80
35654;PMS1003;21773;50.010;19.972;2023-04-24T04:49:49;15.50;15.50;14.50
35654;PMS1003;21773;50.010;19.972;2023-04-24T04:52:57;15.40;14.40;13.00
35654;PMS1003;21773;50.010;19.972;2023-04-24T04:56:06;15.00;14.00;13.00
35654;PMS1003;21773;50.010;19.972;2023-04-24T04:59:19;17.40;15.00;12.80
35654;PMS1003;21773;50.010;19.972;2023-04-24T05:02:27;19.00;19.00;17.00
35654;PMS1003;21773;50.010;19.972;2023-04-24T05:05:30;17.00;16.00;14.00
35654;PMS1003;21773;50.010;19.972;2023-04-24T05:08:34;17.00;17.00;15.40
35654;PMS1003;21773;50.010;19.972;2023-04-24T05:11:40;14.50;14.50;12.50
35654;PMS1003;21773;50.010;19.972;2023-04-24T05:14:43;16.00;14.00;13.00
35654;PMS1003;21773;50.010;19.972;2023-04-24T05:17:48;13.75;12.00;11.00
35654;PMS1003;21773;50.010;19.972;2023-04-24T05:20:52;17.00;16.00;14.00
35654;PMS1003;21773;50.010;19.972;2023-04-24T05:23:55;12.00;12.00;11.00
35654;PMS1003;21773;50.010;19.972;2023-04-24T05:27:17;15.40;14.40;13.00
35654;PMS1003;21773;50.010;19.972;2023-04-24T05:30:23;13.00;13.00;12.00
35654;PMS1003;21773;50.010;19.972;2023-04-24T05:33:30;17.00;16.60;14.00
35654;PMS1003;21773;50.010;19.972;2023-04-24T05:36:33;18.00;17.60;16.00
35654;PMS1003;21773;50.010;19.972;2023-04-24T05:39:36;15.00;15.00;13.00
35654;PMS1003;21773;50.010;19.972;2023-04-24T05:42:40;17.00;15.00;13.00
35654;PMS1003;21773;50.010;19.972;2023-04-24T05:45:43;14.80;14.00;12.80
35654;PMS1003;21773;50.010;19.972;2023-04-24T05:48:48;16.00;15.00;12.75
35654;PMS1003;21773;50.010;19.972;2023-04-24T05:51:52;15.00;14.00;13.00
35654;PMS1003;21773;50.010;19.972;2023-04-24T05:54:56;14.60;14.60;12.60
35654;PMS1003;21773;50.010;19.972;2023-04-24T05:58:05;16.00;16.00;13.60
35654;PMS1003;21773;50.010;19.972;2023-04-24T06:01:10;17.40;16.00;13.60
35654;PMS1003;21773;50.010;19.972;2023-04-24T06:04:15;16.00;14.20;13.20
35654;PMS1003;21773;50.010;19.972;2023-04-24T06:07:19;15.25;14.00;12.25
35654;PMS1003;21773;50.010;19.972;2023-04-24T06:10:23;16.60;16.00;14.00
35654;PMS1003;21773;50.010;19.972;2023-04-24T06:13:26;16.00;14.50;13.50
35654;PMS1003;21773;50.010;19.972;2023-04-24T06:17:08;18.25;16.50;14.75
35654;PMS1003;21773;50.010;19.972;2023-04-24T06:20:16;17.00;16.40;15.00
35654;PMS1003;21773;50.010;19.972;2023-04-24T06:23:19;17.00;15.00;13.00
35654;PMS1003;21773;50.010;19.972;2023-04-24T06:26:22;17.00;16.00;14.00
35654;PMS1003;21773;50.010;19.972;2023-04-24T06:29:26;15.60;14.00;13.00
35654;PMS1003;21773;50.010;19.972;2023-04-24T06:32:30;14.00;13.00;11.00
35654;PMS1003;21773;50.010;19.972;2023-04-24T06:35:35;19.00;17.40;15.00
35654;PMS1003;21773;50.010;19.972;2023-04-24T06:38:39;16.00;15.40;14.00
35654;PMS1003;21773;50.010;19.972;2023-04-24T06:41:43;14.50;11.50;10.50
35654;PMS1003;21773;50.010;19.972;2023-04-24T06:44:53;12.00;11.50;10.50
35654;PMS1003;21773;50.010;19.972;2023-04-24T06:47:56;13.25;12.25;11.25
35654;PMS1003;21773;50.010;19.972;2023-04-24T06:51:01;13.00;11.50;10.00
35654;PMS1003;21773;50.010;19.972;2023-04-24T06:54:04;12.00;11.60;10.00
35654;PMS1003;21773;50.010;19.972;2023-04-24T06:57:08;16.00;14.25;12.00
35654;PMS1003;21773;50.010;19.972;2023-04-24T07:00:12;17.40;14.40;13.00
35654;PMS1003;21773;50.010;19.972;2023-04-24T07:03:16;13.25;11.75;9.75
35654;PMS1003;21773;50.010;19.972;2023-04-24T07:06:21;14.80;14.80;12.80
35654;PMS1003;21773;50.010;19.972;2023-04-24T07:09:25;13.80;13.40;12.00
35654;PMS1003;21773;50.010;19.972;2023-04-24T07:12:29;16.00;15.00;13.00
35654;PMS1003;21773;50.010;19.972;2023-04-24T07:15:32;15.60;15.00;13.60
35654;PMS1003;21773;50.010;19.972;2023-04-24T07:18:35;9.60;8.60;8.00
35654;PMS1003;21773;50.010;19.972;2023-04-24T07:21:40;11.20;11.20;10.20
35654;PMS1003;21773;50.010;19.972;2023-04-24T07:24:43;10.60;10.00;9.00
35654;PMS1003;21773;50.010;19.972;2023-04-24T07:27:46;13.00;12.00;11.00
35654;PMS1003;21773;50.010;19.972;2023-04-24T07:30:50;9.60;9.60;9.00
35654;PMS1003;21773;50.010;19.972;2023-04-24T07:33:56;11.60;10.00;9.60
35654;PMS1003;21773;50.010;19.972;2023-04-24T07:37:01;10.40;10.40;9.40
35654;PMS1003;21773;50.010;19.972;2023-04-24T07:40:05;10.67;9.00;8.67
35654;PMS1003;21773;50.010;19.972;2023-04-24T07:43:09;11.50;11.00;10.50
35654;PMS1003;21773;50.010;19.972;2023-04-24T07:46:12;9.00;9.00;8.60
35654;PMS1003;21773;50.010;19.972;2023-04-24T07:49:16;13.60;10.20;9.60
35654;PMS1003;21773;50.010;19.972;2023-04-24T07:52:22;10.40;10.00;9.00
35654;PMS1003;21773;50.010;19.972;2023-04-24T07:55:26;8.00;8.00;8.00
35654;PMS1003;21773;50.010;19.972;2023-04-24T07:58:29;12.00;11.50;10.50
35654;PMS1003;21773;50.010;19.972;2023-04-24T08:01:32;11.00;10.60;10.00
35654;PMS1003;21773;50.010;19.972;2023-04-24T08:04:36;11.00;10.20;10.00
35654;PMS1003;21773;50.010;19.972;2023-04-24T08:07:41;9.00;9.00;8.00
35654;PMS1003;21773;50.010;19.972;2023-04-24T08:10:45;10.00;9.40;9.00
35654;PMS1003;21773;50.010;19.972;2023-04-24T08:13:48;10.40;10.00;9.40
35654;PMS1003;21773;50.010;19.972;2023-04-24T08:16:52;11.00;9.00;9.00
35654;PMS1003;21773;50.010;19.972;2023-04-24T08:19:56;9.60;9.00;8.00
35654;PMS1003;21773;50.010;19.972;2023-04-24T08:23:06;7.60;7.40;7.00
35654;PMS1003;21773;50.010;19.972;2023-04-24T08:26:09;10.00;10.00;9.00
35654;PMS1003;21773;50.010;19.972;2023-04-24T08:29:13;7.60;7.40;7.00
35654;PMS1003;21773;50.010;19.972;2023-04-24T08:32:16;7.20;7.20;6.20
35654;PMS1003;21773;50.010;19.972;2023-04-24T08:35:20;9.00;9.00;7.40
35654;PMS1003;21773;50.010;19.972;2023-04-24T08:38:26;9.40;9.00;8.40
35654;PMS1003;21773;50.010;19.972;2023-04-24T08:41:29;9.00;9.00;8.50
35654;PMS1003;21773;50.010;19.972;2023-04-24T08:44:34;7.00;6.00;6.00
35654;PMS1003;21773;50.010;19.972;2023-04-24T08:47:39;10.00;10.00;9.00
35654;PMS1003;21773;50.010;19.972;2023-04-24T08:50:43;8.25;8.00;7.00
35654;PMS1003;21773;50.010;19.972;2023-04-24T08:53:48;8.40;8.40;7.60
35654;PMS1003;21773;50.010;19.972;2023-04-24T08:56:55;8.80;8.00;7.80
35654;PMS1003;21773;50.010;19.972;2023-04-24T09:00:03;9.00;9.00;7.60
35654;PMS1003;21773;50.010;19.972;2023-04-24T09:03:09;9.00;8.00;7.40
35654;PMS1003;21773;50.010;19.972;2023-04-24T09:06:13;11.00;11.00;10.00
35654;PMS1003;21773;50.010;19.972;2023-04-24T09:09:20;7.00;7.00;6.00
35654;PMS1003;21773;50.010;19.972;2023-04-24T09:12:25;8.60;8.60;8.00
35654;PMS1003;21773;50.010;19.972;2023-04-24T09:15:28;7.00;7.00;5.60
35654;PMS1003;21773;50.010;19.972;2023-04-24T09:18:32;9.00;9.00;8.00
35654;PMS1003;21773;50.010;19.972;2023-04-24T09:21:36;7.00;7.00;6.80
35654;PMS1003;21773;50.010;19.972;2023-04-24T09:24:42;9.50;9.00;8.50
35654;PMS1003;21773;50.010;19.972;2023-04-24T09:27:45;8.75;8.75;8.00
35654;PMS1003;21773;50.010;19.972;2023-04-24T09:30:51;9.00;8.00;7.00
35654;PMS1003;21773;50.010;19.972;2023-04-24T09:34:05;8.00;8.00;7.00
35654;PMS1003;21773;50.010;19.972;2023-04-24T09:37:09;8.00;8.00;7.00
35654;PMS1003;21773;50.010;19.972;2023-04-24T09:40:15;9.00;8.00;7.00
35654;PMS1003;21773;50.010;19.972;2023-04-24T09:43:19;8.00;8.00;7.00
35654;PMS1003;21773;50.010;19.972;2023-04-24T09:46:28;7.75;6.75;6.00
35654;PMS1003;21773;50.010;19.972;2023-04-24T09:49:33;10.00;10.00;9.00
35654;PMS1003;21773;50.010;19.972;2023-04-24T09:52:42;9.00;8.00;7.40
35654;PMS1003;21773;50.010;19.972;2023-04-24T09:55:48;7.25;7.25;7.00
35654;PMS1003;21773;50.010;19.972;2023-04-24T09:58:52;7.60;7.60;7.00
35654;PMS1003;21773;50.010;19.972;2023-04-24T10:01:55;9.00;8.00;7.00
35654;PMS1003;21773;50.010;19.972;2023-04-24T10:05:00;7.00;6.60;6.00
35654;PMS1003;21773;50.010;19.972;2023-04-24T10:08:05;6.60;6.60;6.00
35654;PMS1003;21773;50.010;19.972;2023-04-24T10:11:11;6.80;6.80;6.80
35654;PMS1003;21773;50.010;19.972;2023-04-24T10:14:15;8.00;7.00;7.00
35654;PMS1003;21773;50.010;19.972;2023-04-24T10:17:20;8.80;8.80;8.00
35654;PMS1003;21773;50.010;19.972;2023-04-24T10:20:26;10.00;8.40;7.80
35654;PMS1003;21773;50.010;19.972;2023-04-24T10:23:32;9.00;8.00;8.00
35654;PMS1003;21773;50.010;19.972;2023-04-24T10:26:38;8.40;8.00;8.00
35654;PMS1003;21773;50.010;19.972;2023-04-24T10:29:41;8.00;8.00;7.20
35654;PMS1003;21773;50.010;19.972;2023-04-24T10:32:46;9.80;9.00;8.00
35654;PMS1003;21773;50.010;19.972;2023-04-24T10:35:50;10.00;9.00;8.00
35654;PMS1003;21773;50.010;19.972;2023-04-24T10:38:54;8.80;7.20;7.00
35654;PMS1003;21773;50.010;19.972;2023-04-24T10:42:02;9.00;9.00;8.00
35654;PMS1003;21773;50.010;19.972;2023-04-24T10:45:17;9.20;7.20;7.20
35654;PMS1003;21773;50.010;19.972;2023-04-24T10:48:26;8.25;7.25;7.00
35654;PMS1003;21773;50.010;19.972;2023-04-24T10:51:43;8.50;8.00;8.00
35654;PMS1003;21773;50.010;19.972;2023-04-24T10:54:48;9.00;9.00;8.00
35654;PMS1003;21773;50.010;19.972;2023-04-24T10:58:03;6.00;6.00;5.80
35654;PMS1003;21773;50.010;19.972;2023-04-24T11:01:06;8.25;8.00;7.25
35654;PMS1003;21773;50.010;19.972;2023-04-24T11:04:10;9.00;9.00;8.60
35654;PMS1003;21773;50.010;19.972;2023-04-24T11:07:13;9.00;8.50;7.00
35654;PMS1003;21773;50.010;19.972;2023-04-24T11:10:24;9.50;9.50;8.00
35654;PMS1003;21773;50.010;19.972;2023-04-24T11:17:07;8.00;7.40;7.00
35654;PMS1003;21773;50.010;19.972;2023-04-24T11:20:11;9.00;8.40;8.00
35654;PMS1003;21773;50.010;19.972;2023-04-24T11:23:28;9.50;8.25;8.25
35654;PMS1003;21773;50.010;19.972;2023-04-24T11:26:38;8.40;7.60;7.00
35654;PMS1003;21773;50.010;19.972;2023-04-24T11:29:44;8.00;7.60;7.00
35654;PMS1003;21773;50.010;19.972;2023-04-24T11:32:51;9.60;9.00;8.60
35654;PMS1003;21773;50.010;19.972;2023-04-24T11:35:54;8.00;8.00;8.00
35654;PMS1003;21773;50.010;19.972;2023-04-24T11:38:58;7.75;7.75;6.75
35654;PMS1003;21773;50.010;19.972;2023-04-24T11:42:02;11.00;9.00;9.00
35654;PMS1003;21773;50.010;19.972;2023-04-24T11:45:08;10.00;9.60;9.00
35654;PMS1003;21773;50.010;19.972;2023-04-24T11:48:19;9.00;9.00;8.60
35654;PMS1003;21773;50.010;19.972;2023-04-24T11:51:24;8.60;8.60;8.00
35654;PMS1003;21773;50.010;19.972;2023-04-24T11:54:36;7.40;7.40;7.00
35654;PMS1003;21773;50.010;19.972;2023-04-24T11:57:41;8.00;8.00;7.00
35654;PMS1003;21773;50.010;19.972;2023-04-24T12:00:55;8.60;8.40;8.00
35654;PMS1003;21773;50.010;19.972;2023-04-24T12:04:00;8.50;8.00;7.00
35654;PMS1003;21773;50.010;19.972;2023-04-24T12:07:04;8.20;7.20;6.20
35654;PMS1003;21773;50.010;19.972;2023-04-24T12:10:08;10.00;9.00;8.00
35654;PMS1003;21773;50.010;19.972;2023-04-24T12:13:12;10.00;10.00;9.00
35654;PMS1003;21773;50.010;19.972;2023-04-24T12:16:15;12.60;12.00;11.60
35654;PMS1003;21773;50.010;19.972;2023-04-24T12:19:21;9.60;9.40;9.00
35654;PMS1003;21773;50.010;19.972;2023-04-24T12:22:25;8.75;8.75;8.00
35654;PMS1003;21773;50.010;19.972;2023-04-24T12:25:29;9.60;9.60;9.00
35654;PMS1003;21773;50.010;19.972;2023-04-24T12:28:35;7.00;7.00;7.00
35654;PMS1003;21773;50.010;19.972;2023-04-24T12:31:40;8.60;8.60;7.40
35654;PMS1003;21773;50.010;19.972;2023-04-24T12:34:44;10.60;10.40;9.40
35654;PMS1003;21773;50.010;19.972;2023-04-24T12:37:48;8.00;7.33;7.00
35654;PMS1003;21773;50.010;19.972;2023-04-24T12:41:01;9.00;9.00;8.00
35654;PMS1003;21773;50.010;19.972;2023-04-24T12:44:10;10.00;9.00;8.50
35654;PMS1003;21773;50.010;19.972;2023-04-24T12:47:13;10.00;10.00;10.00
35654;PMS1003;21773;50.010;19.972;2023-04-24T12:50:18;11.60;11.40;10.40
35654;PMS1003;21773;50.010;19.972;2023-04-24T12:53:22;11.50;10.00;9.50
35654;PMS1003;21773;50.010;19.972;2023-04-24T12:56:28;10.60;10.00;9.00
35654;PMS1003;21773;50.010;19.972;2023-04-24T12:59:32;13.00;13.00;12.00
35654;PMS1003;21773;50.010;19.972;2023-04-24T13:02:35;13.40;13.00;11.00
35654;PMS1003;21773;50.010;19.972;2023-04-24T13:05:40;14.00;13.40;12.60
35654;PMS1003;21773;50.010;19.972;2023-04-24T13:08:45;11.25;10.25;9.25
35654;PMS1003;21773;50.010;19.972;2023-04-24T13:11:49;13.00;12.50;10.50
35654;PMS1003;21773;50.010;19.972;2023-04-24T13:14:53;10.00;9.00;8.00
35654;PMS1003;21773;50.010;19.972;2023-04-24T13:17:57;12.40;12.00;10.00
35654;PMS1003;21773;50.010;19.972;2023-04-24T13:21:02;11.00;11.00;10.00
35654;PMS1003;21773;50.010;19.972;2023-04-24T13:24:06;10.00;10.00;9.00
35654;PMS1003;21773;50.010;19.972;2023-04-24T13:27:09;10.00;10.00;9.20
35654;PMS1003;21773;50.010;19.972;2023-04-24T13:30:13;12.00;12.00;11.00
35654;PMS1003;21773;50.010;19.972;2023-04-24T13:33:17;11.00;11.00;11.00
35654;PMS1003;21773;50.010;19.972;2023-04-24T13:36:22;11.00;11.00;10.00
35654;PMS1003;21773;50.010;19.972;2023-04-24T13:39:25;12.00;11.00;10.60
35654;PMS1003;21773;50.010;19.972;2023-04-24T13:42:29;10.75;9.75;9.75
35654;PMS1003;21773;50.010;19.972;2023-04-24T13:45:32;10.00;10.00;9.00
35654;PMS1003;21773;50.010;19.972;2023-04-24T13:48:35;9.00;9.00;8.40
35654;PMS1003;21773;50.010;19.972;2023-04-24T13:51:41;9.00;9.00;8.00
35654;PMS1003;21773;50.010;19.972;2023-04-24T13:54:45;10.60;10.00;9.20
35654;PMS1003;21773;50.010;19.972;2023-04-24T13:57:48;9.40;9.40;8.40
35654;PMS1003;21773;50.010;19.972;2023-04-24T14:00:51;7.00;7.00;7.00
35654;PMS1003;21773;50.010;19.972;2023-04-24T14:03:55;5.60;5.60;5.00
35654;PMS1003;21773;50.010;19.972;2023-04-24T14:07:00;6.20;6.20;6.00
35654;PMS1003;21773;50.010;19.972;2023-04-24T14:10:04;9.60;8.60;7.60
35654;PMS1003;21773;50.010;19.972;2023-04-24T14:13:08;7.60;7.40;7.00
35654;PMS1003;21773;50.010;19.972;2023-04-24T14:16:11;9.60;8.00;7.40
35654;PMS1003;21773;50.010;19.972;2023-04-24T14:19:16;9.00;8.00;8.00
35654;PMS1003;21773;50.010;19.972;2023-04-24T14:22:21;8.00;8.00;8.00
35654;PMS1003;21773;50.010;19.972;2023-04-24T14:25:24;8.00;7.40;7.00
35654;PMS1003;21773;50.010;19.972;2023-04-24T14:28:27;10.00;9.00;9.00
35654;PMS1003;21773;50.010;19.972;2023-04-24T14:31:31;8.00;7.40;7.00
35654;PMS1003;21773;50.010;19.972;2023-04-24T14:34:34;8.00;8.00;8.00
35654;PMS1003;21773;50.010;19.972;2023-04-24T14:37:38;8.00;7.20;6.80
35654;PMS1003;21773;50.010;19.972;2023-04-24T14:40:42;6.00;6.00;5.00
35654;PMS1003;21773;50.010;19.972;2023-04-24T14:44:06;8.40;8.40;8.00
35654;PMS1003;21773;50.010;19.972;2023-04-24T14:47:09;10.60;10.60;10.40
35654;PMS1003;21773;50.010;19.972;2023-04-24T14:50:13;9.40;9.40;8.40
35654;PMS1003;21773;50.010;19.972;2023-04-24T14:53:18;7.20;7.20;6.80
35654;PMS1003;21773;50.010;19.972;2023-04-24T14:56:21;9.60;9.60;9.40
35654;PMS1003;21773;50.010;19.972;2023-04-24T14:59:24;9.80;9.00;8.80
35654;PMS1003;21773;50.010;19.972;2023-04-24T15:02:27;10.20;10.00;9.80
35654;PMS1003;21773;50.010;19.972;2023-04-24T15:05:31;8.00;8.00;8.00
35654;PMS1003;21773;50.010;19.972;2023-04-24T15:08:37;8.00;7.00;6.50
35654;PMS1003;21773;50.010;19.972;2023-04-24T15:11:40;6.50;6.00;6.00
35654;PMS1003;21773;50.010;19.972;2023-04-24T15:14:43;7.40;6.40;5.40
35654;PMS1003;21773;50.010;19.972;2023-04-24T15:17:47;8.00;8.00;7.00
35654;PMS1003;21773;50.010;19.972;2023-04-24T15:20:50;8.25;7.00;6.50
35654;PMS1003;21773;50.010;19.972;2023-04-24T15:23:55;8.00;7.00;7.00
35654;PMS1003;21773;50.010;19.972;2023-04-24T15:26:58;7.80;7.60;7.60
35654;PMS1003;21773;50.010;19.972;2023-04-24T15:30:03;7.60;7.60;7.60
35654;PMS1003;21773;50.010;19.972;2023-04-24T15:33:07;7.80;7.80;7.80
35654;PMS1003;21773;50.010;19.972;2023-04-24T15:36:10;7.00;7.00;6.00
35654;PMS1003;21773;50.010;19.972;2023-04-24T15:39:15;9.50;8.50;8.00
35654;PMS1003;21773;50.010;19.972;2023-04-24T15:42:18;9.00;9.00;8.00
35654;PMS1003;21773;50.010;19.972;2023-04-24T15:45:22;7.40;7.40;7.00
35654;PMS1003;21773;50.010;19.972;2023-04-24T15:48:26;8.60;8.00;8.00
35654;PMS1003;21773;50.010;19.972;2023-04-24T15:51:30;7.40;7.40;7.00
35654;PMS1003;21773;50.010;19.972;2023-04-24T15:54:34;6.00;6.00;5.00
35654;PMS1003;21773;50.010;19.972;2023-04-24T15:57:39;5.75;5.75;4.75
35654;PMS1003;21773;50.010;19.972;2023-04-24T16:00:43;6.20;6.20;5.20
35654;PMS1003;21773;50.010;19.972;2023-04-24T16:03:47;8.00;8.00;7.00
35654;PMS1003;21773;50.010;19.972;2023-04-24T16:06:50;6.00;6.00;6.00
35654;PMS1003;21773;50.010;19.972;2023-04-24T16:09:55;4.00;4.00;4.00
35654;PMS1003;21773;50.010;19.972;2023-04-24T16:12:59;4.00;4.00;4.00
35654;PMS1003;21773;50.010;19.972;2023-04-24T16:16:04;6.00;5.00;4.50
35654;PMS1003;21773;50.010;19.972;2023-04-24T16:19:08;10.00;9.67;9.00
35654;PMS1003;21773;50.010;19.972;2023-04-24T16:22:11;8.40;8.00;7.40
35654;PMS1003;21773;50.010;19.972;2023-04-24T16:25:16;9.00;9.00;8.40
35654;PMS1003;21773;50.010;19.972;2023-04-24T16:28:19;6.00;6.00;6.00
35654;PMS1003;21773;50.010;19.972;2023-04-24T16:31:24;7.00;6.00;6.00
35654;PMS1003;21773;50.010;19.972;2023-04-24T16:34:27;7.50;7.00;6.50
35654;PMS1003;21773;50.010;19.972;2023-04-24T16:37:31;7.40;6.80;5.80
35654;PMS1003;21773;50.010;19.972;2023-04-24T16:40:35;6.00;6.00;5.00
35654;PMS1003;21773;50.010;19.972;2023-04-24T16:43:38;8.00;7.00;6.00
35654;PMS1003;21773;50.010;19.972;2023-04-24T16:46:42;8.00;8.00;7.80
35654;PMS1003;21773;50.010;19.972;2023-04-24T16:49:45;9.00;9.00;8.50
35654;PMS1003;21773;50.010;19.972;2023-04-24T16:52:50;11.00;10.80;10.00
35654;PMS1003;21773;50.010;19.972;2023-04-24T16:55:55;10.60;10.20;10.20
35654;PMS1003;21773;50.010;19.972;2023-04-24T16:58:58;9.00;9.00;9.00
35654;PMS1003;21773;50.010;19.972;2023-04-24T17:02:01;9.00;9.00;8.40
35654;PMS1003;21773;50.010;19.972;2023-04-24T17:05:05;8.00;8.00;7.20
35654;PMS1003;21773;50.010;19.972;2023-04-24T17:08:09;9.00;9.00;8.00
35654;PMS1003;21773;50.010;19.972;2023-04-24T17:11:13;11.00;10.00;9.00
35654;PMS1003;21773;50.010;19.972;2023-04-24T17:14:17;13.00;12.00;11.00
35654;PMS1003;21773;50.010;19.972;2023-04-24T17:17:20;13.00;13.00;12.00
35654;PMS1003;21773;50.010;19.972;2023-04-24T17:20:26;10.75;10.50;9.50
35654;PMS1003;21773;50.010;19.972;2023-04-24T17:23:30;11.60;11.60;10.00
35654;PMS1003;21773;50.010;19.972;2023-04-24T17:26:35;14.00;13.75;13.00